Hallett, OK (74034)

10:04 AM CDT on July 04, 2015 (GMT -0500)
PAWNEE | | Change Station
CLOSE
Current Station
Personal Weather Station
Location: Jennings, OK
Elevation: 925 ft
Nearby Weather Stations

Elev 925 ft 36.24 °N, 96.60 °W | Updated 14 seconds ago

Partly Cloudy
Partly Cloudy
84.4 °F
Feels Like 90 °F
N
0.7
Wind Variable Wind from SW
Gusts 2.2 mph

Today
High -- | Low -- °F
--% Chance of Precip.
Yesterday
High -- | Low -- °F
Precip. -- in
6:13 AM 8:47 PM
Waning Gibbous, 92% visible
Pressure 29.99 in
Visibility 7.0 miles
Clouds Mostly Cloudy 800 ft
Mostly Cloudy 8500 ft
Heat Index 90 °F
Dew Point 71 °F
Humidity 65%
Rainfall 0.00 in
Snow Depth Not available.
UV 3 out of 12
Pollen 3.00 out of 12
Air Quality Not available.
Flu Activity Not available.
METAR KOWP 041455Z AUTO 05008KT 7SM BKN008 BKN085 26/22 A2999 RMK AO2 LTG DSNT SE T02580219

More Conditions Fewer Conditions

Pressure 29.99 in
Visibility 7.0 miles
Clouds Mostly Cloudy 800 ft
Mostly Cloudy 8500 ft
Heat Index 90 °F
Dew Point 71 °F
Humidity 65%
Rainfall 0.00 in
Snow Depth Not available.
UV 3 out of 12
Pollen 3.00 out of 12
Air Quality Not available.
Flu Activity Not available.
METAR KOWP 041455Z AUTO 05008KT 7SM BKN008 BKN085 26/22 A2999 RMK AO2 LTG DSNT SE T02580219

More Conditions Fewer Conditions

Nowcast | as of 9:59 am CDT on July 4, 2015

At 10 am...National Weather Service radars continued to indicate thunderstorms and rainshowers over portions of eastern Oklahoma. This activity was located from Henryetta to Eufaula...and from Talihina to just south of Wilburton. Movement was to the southeast at 25 miles an hour. Through 11 am...thunderstorms and rainshowers will continue just south of the Interstate 40 corridor...and across southeast Oklahoma from east of Clayton to Big Cedar. Brief heavy rainfall...gusty winds...and dangerous cloud to ground lightning will occur with any of the stronger storms.

×

10-Day Weather Forecast

×

Almanac

Astronomy

Jul. 04, 2015 Rise Set
Actual Time
Civil Twilight
Nautical Twilight
Astronomical Twilight
Moon
Length of Visible Light
Length of Day
Tomorrow will be .
, % of the Moon is Illuminated

Today's Extremes

State Highs State Lows

Community

WunderPhotos

Upload Photos

1,834,985 photos uploaded!

WunderBlogs® & News

Nearby

Air Quality

  Air Quality AQ Index Pollutant
Not available.

Snow Depth

Station Depth Elevation

Earthquake Activity

City Distance Mag. Time & Date
Minimum magnitude displayed is 2.5.

Coastal Water Temperatures

Place Temperature

Stations

Nearby Weather Stations

Station Location Temp. Windchill Dew Point Humidity Wind Precip. Elev Updated Type